sensor_id;sensor_type;location;lat;lon;timestamp;P1;durP1;ratioP1;P2;durP2;ratioP2
23123;SDS011;11731;48.592;8.858;2022-09-03T00:02:02;3.27;;;2.70;;
23123;SDS011;11731;48.592;8.858;2022-09-03T00:04:36;3.23;;;2.60;;
23123;SDS011;11731;48.592;8.858;2022-09-03T00:07:11;4.37;;;2.70;;
23123;SDS011;11731;48.592;8.858;2022-09-03T00:09:45;6.43;;;2.90;;
23123;SDS011;11731;48.592;8.858;2022-09-03T00:12:14;3.13;;;2.67;;
23123;SDS011;11731;48.592;8.858;2022-09-03T00:14:46;3.30;;;3.00;;
23123;SDS011;11731;48.592;8.858;2022-09-03T00:17:17;3.00;;;2.70;;
23123;SDS011;11731;48.592;8.858;2022-09-03T00:19:51;2.70;;;2.50;;
23123;SDS011;11731;48.592;8.858;2022-09-03T00:22:22;3.17;;;2.57;;
23123;SDS011;11731;48.592;8.858;2022-09-03T00:24:54;2.80;;;2.60;;
23123;SDS011;11731;48.592;8.858;2022-09-03T00:27:25;4.30;;;2.70;;
23123;SDS011;11731;48.592;8.858;2022-09-03T00:29:54;3.50;;;2.60;;
23123;SDS011;11731;48.592;8.858;2022-09-03T00:32:27;3.23;;;2.53;;
23123;SDS011;11731;48.592;8.858;2022-09-03T00:35:03;3.50;;;2.90;;
23123;SDS011;11731;48.592;8.858;2022-09-03T00:37:35;2.87;;;2.50;;
23123;SDS011;11731;48.592;8.858;2022-09-03T00:40:03;2.70;;;2.50;;
23123;SDS011;11731;48.592;8.858;2022-09-03T00:42:37;3.27;;;2.70;;
23123;SDS011;11731;48.592;8.858;2022-09-03T00:45:13;3.50;;;2.93;;
23123;SDS011;11731;48.592;8.858;2022-09-03T00:47:48;3.30;;;2.87;;
23123;SDS011;11731;48.592;8.858;2022-09-03T00:50:28;2.97;;;2.77;;
23123;SDS011;11731;48.592;8.858;2022-09-03T00:53:11;3.27;;;2.90;;
23123;SDS011;11731;48.592;8.858;2022-09-03T00:55:48;2.90;;;2.70;;
23123;SDS011;11731;48.592;8.858;2022-09-03T00:58:30;4.33;;;3.23;;
23123;SDS011;11731;48.592;8.858;2022-09-03T01:01:09;3.90;;;3.60;;
23123;SDS011;11731;48.592;8.858;2022-09-03T01:03:43;3.27;;;2.93;;
23123;SDS011;11731;48.592;8.858;2022-09-03T01:06:21;4.17;;;3.30;;
23123;SDS011;11731;48.592;8.858;2022-09-03T01:08:59;3.60;;;3.30;;
23123;SDS011;11731;48.592;8.858;2022-09-03T01:11:39;2.77;;;2.43;;
23123;SDS011;11731;48.592;8.858;2022-09-03T01:14:13;3.30;;;3.00;;
23123;SDS011;11731;48.592;8.858;2022-09-03T01:16:52;3.67;;;2.83;;
23123;SDS011;11731;48.592;8.858;2022-09-03T01:19:33;4.97;;;3.23;;
23123;SDS011;11731;48.592;8.858;2022-09-03T01:22:25;3.10;;;2.80;;
23123;SDS011;11731;48.592;8.858;2022-09-03T01:25:16;3.80;;;2.83;;
23123;SDS011;11731;48.592;8.858;2022-09-03T01:28:02;5.23;;;2.73;;
23123;SDS011;11731;48.592;8.858;2022-09-03T01:30:44;3.20;;;2.90;;
23123;SDS011;11731;48.592;8.858;2022-09-03T01:33:23;3.27;;;2.90;;
23123;SDS011;11731;48.592;8.858;2022-09-03T01:35:59;3.53;;;2.80;;
23123;SDS011;11731;48.592;8.858;2022-09-03T01:38:33;3.70;;;3.37;;
23123;SDS011;11731;48.592;8.858;2022-09-03T01:41:06;3.80;;;3.03;;
23123;SDS011;11731;48.592;8.858;2022-09-03T01:44:02;3.00;;;2.80;;
23123;SDS011;11731;48.592;8.858;2022-09-03T01:46:37;3.40;;;2.80;;
23123;SDS011;11731;48.592;8.858;2022-09-03T01:49:09;3.30;;;2.50;;
23123;SDS011;11731;48.592;8.858;2022-09-03T01:51:45;2.80;;;2.60;;
23123;SDS011;11731;48.592;8.858;2022-09-03T01:54:18;3.47;;;3.13;;
23123;SDS011;11731;48.592;8.858;2022-09-03T01:57:06;3.40;;;3.10;;
23123;SDS011;11731;48.592;8.858;2022-09-03T01:59:46;4.67;;;3.67;;
23123;SDS011;11731;48.592;8.858;2022-09-03T02:02:19;5.07;;;3.37;;
23123;SDS011;11731;48.592;8.858;2022-09-03T02:04:54;3.23;;;3.03;;
23123;SDS011;11731;48.592;8.858;2022-09-03T02:07:24;3.03;;;2.83;;
23123;SDS011;11731;48.592;8.858;2022-09-03T02:09:53;5.50;;;3.53;;
23123;SDS011;11731;48.592;8.858;2022-09-03T02:12:20;6.57;;;3.27;;
23123;SDS011;11731;48.592;8.858;2022-09-03T02:14:49;3.40;;;3.10;;
23123;SDS011;11731;48.592;8.858;2022-09-03T02:17:15;2.80;;;2.60;;
23123;SDS011;11731;48.592;8.858;2022-09-03T02:19:43;5.43;;;3.43;;
23123;SDS011;11731;48.592;8.858;2022-09-03T02:22:10;3.20;;;2.57;;
23123;SDS011;11731;48.592;8.858;2022-09-03T02:24:38;4.43;;;3.30;;
23123;SDS011;11731;48.592;8.858;2022-09-03T02:27:05;4.30;;;3.20;;
23123;SDS011;11731;48.592;8.858;2022-09-03T02:29:32;3.50;;;3.20;;
23123;SDS011;11731;48.592;8.858;2022-09-03T02:32:00;3.23;;;3.03;;
23123;SDS011;11731;48.592;8.858;2022-09-03T02:34:28;3.23;;;2.93;;
23123;SDS011;11731;48.592;8.858;2022-09-03T02:36:55;3.50;;;3.20;;
23123;SDS011;11731;48.592;8.858;2022-09-03T02:39:22;4.20;;;2.97;;
23123;SDS011;11731;48.592;8.858;2022-09-03T02:41:50;3.10;;;2.90;;
23123;SDS011;11731;48.592;8.858;2022-09-03T02:44:20;4.93;;;3.07;;
23123;SDS011;11731;48.592;8.858;2022-09-03T02:46:52;3.93;;;2.70;;
23123;SDS011;11731;48.592;8.858;2022-09-03T02:49:24;3.80;;;3.10;;
23123;SDS011;11731;48.592;8.858;2022-09-03T02:51:56;3.17;;;2.90;;
23123;SDS011;11731;48.592;8.858;2022-09-03T02:54:25;3.73;;;2.93;;
23123;SDS011;11731;48.592;8.858;2022-09-03T02:56:52;3.80;;;3.47;;
23123;SDS011;11731;48.592;8.858;2022-09-03T02:59:19;3.90;;;3.60;;
23123;SDS011;11731;48.592;8.858;2022-09-03T03:01:46;4.47;;;3.60;;
23123;SDS011;11731;48.592;8.858;2022-09-03T03:04:13;5.00;;;3.10;;
23123;SDS011;11731;48.592;8.858;2022-09-03T03:06:42;4.83;;;3.33;;
23123;SDS011;11731;48.592;8.858;2022-09-03T03:09:08;4.33;;;3.70;;
23123;SDS011;11731;48.592;8.858;2022-09-03T03:11:35;3.40;;;3.10;;
23123;SDS011;11731;48.592;8.858;2022-09-03T03:14:04;3.93;;;3.63;;
23123;SDS011;11731;48.592;8.858;2022-09-03T03:16:31;3.87;;;3.50;;
23123;SDS011;11731;48.592;8.858;2022-09-03T03:18:57;4.03;;;3.63;;
23123;SDS011;11731;48.592;8.858;2022-09-03T03:21:25;3.30;;;3.03;;
23123;SDS011;11731;48.592;8.858;2022-09-03T03:23:53;4.13;;;3.83;;
23123;SDS011;11731;48.592;8.858;2022-09-03T03:26:21;4.77;;;4.30;;
23123;SDS011;11731;48.592;8.858;2022-09-03T03:28:48;6.17;;;4.03;;
23123;SDS011;11731;48.592;8.858;2022-09-03T03:31:21;3.87;;;3.53;;
23123;SDS011;11731;48.592;8.858;2022-09-03T03:33:49;6.10;;;4.00;;
23123;SDS011;11731;48.592;8.858;2022-09-03T03:36:17;4.33;;;3.80;;
23123;SDS011;11731;48.592;8.858;2022-09-03T03:38:44;4.43;;;4.03;;
23123;SDS011;11731;48.592;8.858;2022-09-03T03:41:14;4.10;;;3.80;;
23123;SDS011;11731;48.592;8.858;2022-09-03T03:43:42;4.17;;;3.77;;
23123;SDS011;11731;48.592;8.858;2022-09-03T03:46:10;4.20;;;3.73;;
23123;SDS011;11731;48.592;8.858;2022-09-03T03:48:37;4.27;;;3.53;;
23123;SDS011;11731;48.592;8.858;2022-09-03T03:51:06;5.50;;;3.60;;
23123;SDS011;11731;48.592;8.858;2022-09-03T03:53:34;5.47;;;4.23;;
23123;SDS011;11731;48.592;8.858;2022-09-03T03:56:04;4.67;;;4.27;;
23123;SDS011;11731;48.592;8.858;2022-09-03T03:58:33;5.30;;;3.80;;
23123;SDS011;11731;48.592;8.858;2022-09-03T04:01:04;5.27;;;4.47;;
23123;SDS011;11731;48.592;8.858;2022-09-03T04:03:32;4.57;;;4.17;;
23123;SDS011;11731;48.592;8.858;2022-09-03T04:05:59;6.67;;;4.80;;
23123;SDS011;11731;48.592;8.858;2022-09-03T04:08:27;4.70;;;4.30;;
23123;SDS011;11731;48.592;8.858;2022-09-03T04:10:57;5.60;;;4.30;;
23123;SDS011;11731;48.592;8.858;2022-09-03T04:13:27;4.97;;;4.47;;
23123;SDS011;11731;48.592;8.858;2022-09-03T04:16:00;7.03;;;4.20;;
23123;SDS011;11731;48.592;8.858;2022-09-03T04:18:28;5.93;;;3.97;;
23123;SDS011;11731;48.592;8.858;2022-09-03T04:20:57;4.80;;;4.40;;
23123;SDS011;11731;48.592;8.858;2022-09-03T04:23:28;5.33;;;4.03;;
23123;SDS011;11731;48.592;8.858;2022-09-03T04:25:55;5.87;;;4.80;;
23123;SDS011;11731;48.592;8.858;2022-09-03T04:28:22;5.20;;;4.70;;
23123;SDS011;11731;48.592;8.858;2022-09-03T04:30:49;6.67;;;5.20;;
23123;SDS011;11731;48.592;8.858;2022-09-03T04:33:18;6.43;;;4.67;;
23123;SDS011;11731;48.592;8.858;2022-09-03T04:35:45;5.33;;;4.83;;
23123;SDS011;11731;48.592;8.858;2022-09-03T04:38:12;5.63;;;4.93;;
23123;SDS011;11731;48.592;8.858;2022-09-03T04:40:39;5.30;;;4.80;;
23123;SDS011;11731;48.592;8.858;2022-09-03T04:43:06;6.23;;;4.90;;
23123;SDS011;11731;48.592;8.858;2022-09-03T04:45:32;4.90;;;4.37;;
23123;SDS011;11731;48.592;8.858;2022-09-03T04:47:59;4.93;;;4.50;;
23123;SDS011;11731;48.592;8.858;2022-09-03T04:50:28;6.33;;;4.57;;
23123;SDS011;11731;48.592;8.858;2022-09-03T04:53:00;4.97;;;4.47;;
23123;SDS011;11731;48.592;8.858;2022-09-03T04:55:28;4.93;;;4.20;;
23123;SDS011;11731;48.592;8.858;2022-09-03T04:57:59;5.17;;;4.67;;
23123;SDS011;11731;48.592;8.858;2022-09-03T05:00:25;4.67;;;4.20;;
23123;SDS011;11731;48.592;8.858;2022-09-03T05:02:52;5.37;;;4.87;;
23123;SDS011;11731;48.592;8.858;2022-09-03T05:05:19;5.87;;;4.60;;
23123;SDS011;11731;48.592;8.858;2022-09-03T05:07:48;4.80;;;4.33;;
23123;SDS011;11731;48.592;8.858;2022-09-03T05:10:14;4.73;;;4.30;;
23123;SDS011;11731;48.592;8.858;2022-09-03T05:12:44;4.97;;;4.47;;
23123;SDS011;11731;48.592;8.858;2022-09-03T05:15:12;4.87;;;4.40;;
23123;SDS011;11731;48.592;8.858;2022-09-03T05:17:39;5.33;;;4.10;;
23123;SDS011;11731;48.592;8.858;2022-09-03T05:20:06;5.10;;;4.60;;
23123;SDS011;11731;48.592;8.858;2022-09-03T05:22:34;4.80;;;4.43;;
23123;SDS011;11731;48.592;8.858;2022-09-03T05:25:02;6.13;;;4.70;;
23123;SDS011;11731;48.592;8.858;2022-09-03T05:27:29;4.80;;;4.33;;
23123;SDS011;11731;48.592;8.858;2022-09-03T05:29:57;4.63;;;4.23;;
23123;SDS011;11731;48.592;8.858;2022-09-03T05:32:24;4.87;;;4.47;;
23123;SDS011;11731;48.592;8.858;2022-09-03T05:34:52;5.83;;;4.17;;
23123;SDS011;11731;48.592;8.858;2022-09-03T05:37:20;6.73;;;4.03;;
23123;SDS011;11731;48.592;8.858;2022-09-03T05:39:47;5.10;;;4.30;;
23123;SDS011;11731;48.592;8.858;2022-09-03T05:42:15;4.57;;;4.00;;
23123;SDS011;11731;48.592;8.858;2022-09-03T05:44:42;4.47;;;4.07;;
23123;SDS011;11731;48.592;8.858;2022-09-03T05:47:09;4.77;;;4.37;;
23123;SDS011;11731;48.592;8.858;2022-09-03T05:49:36;5.27;;;4.60;;
23123;SDS011;11731;48.592;8.858;2022-09-03T05:52:03;4.90;;;4.50;;
23123;SDS011;11731;48.592;8.858;2022-09-03T05:54:30;5.00;;;4.30;;
23123;SDS011;11731;48.592;8.858;2022-09-03T05:56:57;4.50;;;4.10;;
23123;SDS011;11731;48.592;8.858;2022-09-03T05:59:26;6.13;;;4.40;;
23123;SDS011;11731;48.592;8.858;2022-09-03T06:01:53;4.40;;;4.00;;
23123;SDS011;11731;48.592;8.858;2022-09-03T06:04:20;6.30;;;4.73;;
23123;SDS011;11731;48.592;8.858;2022-09-03T06:06:47;4.50;;;4.10;;
23123;SDS011;11731;48.592;8.858;2022-09-03T06:09:14;4.87;;;4.37;;
23123;SDS011;11731;48.592;8.858;2022-09-03T06:11:43;6.37;;;4.37;;
23123;SDS011;11731;48.592;8.858;2022-09-03T06:14:11;5.53;;;4.53;;
23123;SDS011;11731;48.592;8.858;2022-09-03T06:16:42;5.33;;;4.70;;
23123;SDS011;11731;48.592;8.858;2022-09-03T06:19:12;5.27;;;4.50;;
23123;SDS011;11731;48.592;8.858;2022-09-03T06:21:40;4.70;;;4.20;;
23123;SDS011;11731;48.592;8.858;2022-09-03T06:24:08;6.57;;;4.63;;
23123;SDS011;11731;48.592;8.858;2022-09-03T06:26:36;4.80;;;4.40;;
23123;SDS011;11731;48.592;8.858;2022-09-03T06:29:04;5.17;;;4.40;;
23123;SDS011;11731;48.592;8.858;2022-09-03T06:31:32;6.10;;;4.70;;
23123;SDS011;11731;48.592;8.858;2022-09-03T06:34:01;8.17;;;5.20;;
23123;SDS011;11731;48.592;8.858;2022-09-03T06:36:27;5.13;;;4.63;;
23123;SDS011;11731;48.592;8.858;2022-09-03T06:38:55;5.30;;;4.80;;
23123;SDS011;11731;48.592;8.858;2022-09-03T06:41:23;4.73;;;4.33;;
23123;SDS011;11731;48.592;8.858;2022-09-03T06:43:51;5.80;;;4.40;;
23123;SDS011;11731;48.592;8.858;2022-09-03T06:46:21;6.03;;;4.40;;
23123;SDS011;11731;48.592;8.858;2022-09-03T06:48:49;4.97;;;4.37;;
23123;SDS011;11731;48.592;8.858;2022-09-03T06:51:19;4.90;;;4.50;;
23123;SDS011;11731;48.592;8.858;2022-09-03T06:53:47;4.93;;;4.53;;
23123;SDS011;11731;48.592;8.858;2022-09-03T06:56:16;8.20;;;4.30;;
23123;SDS011;11731;48.592;8.858;2022-09-03T06:58:46;12.50;;;4.53;;
23123;SDS011;11731;48.592;8.858;2022-09-03T07:01:15;5.20;;;4.30;;
23123;SDS011;11731;48.592;8.858;2022-09-03T07:03:43;5.67;;;4.13;;
23123;SDS011;11731;48.592;8.858;2022-09-03T07:06:12;5.20;;;4.70;;
23123;SDS011;11731;48.592;8.858;2022-09-03T07:08:41;5.07;;;4.03;;
23123;SDS011;11731;48.592;8.858;2022-09-03T07:11:09;4.60;;;3.90;;
23123;SDS011;11731;48.592;8.858;2022-09-03T07:13:38;4.97;;;4.57;;
23123;SDS011;11731;48.592;8.858;2022-09-03T07:16:07;5.17;;;4.23;;
23123;SDS011;11731;48.592;8.858;2022-09-03T07:18:35;5.77;;;4.53;;
23123;SDS011;11731;48.592;8.858;2022-09-03T07:21:04;4.30;;;3.90;;
23123;SDS011;11731;48.592;8.858;2022-09-03T07:23:32;6.33;;;4.70;;
23123;SDS011;11731;48.592;8.858;2022-09-03T07:26:03;5.43;;;4.20;;
23123;SDS011;11731;48.592;8.858;2022-09-03T07:28:33;4.27;;;3.90;;
23123;SDS011;11731;48.592;8.858;2022-09-03T07:31:02;4.97;;;4.30;;
23123;SDS011;11731;48.592;8.858;2022-09-03T07:33:30;4.60;;;4.20;;
23123;SDS011;11731;48.592;8.858;2022-09-03T07:36:01;4.53;;;4.13;;
23123;SDS011;11731;48.592;8.858;2022-09-03T07:38:30;4.20;;;3.80;;
23123;SDS011;11731;48.592;8.858;2022-09-03T07:40:57;4.83;;;3.70;;
23123;SDS011;11731;48.592;8.858;2022-09-03T07:43:27;4.43;;;3.80;;
23123;SDS011;11731;48.592;8.858;2022-09-03T07:45:56;4.33;;;3.93;;
23123;SDS011;11731;48.592;8.858;2022-09-03T07:48:23;4.50;;;3.60;;
23123;SDS011;11731;48.592;8.858;2022-09-03T07:50:49;4.37;;;3.97;;
23123;SDS011;11731;48.592;8.858;2022-09-03T07:53:17;4.50;;;3.53;;
23123;SDS011;11731;48.592;8.858;2022-09-03T07:55:45;5.63;;;3.73;;
23123;SDS011;11731;48.592;8.858;2022-09-03T07:58:13;3.60;;;3.30;;
23123;SDS011;11731;48.592;8.858;2022-09-03T08:00:41;3.27;;;3.00;;
23123;SDS011;11731;48.592;8.858;2022-09-03T08:03:08;3.10;;;2.90;;
23123;SDS011;11731;48.592;8.858;2022-09-03T08:05:35;3.67;;;2.70;;
23123;SDS011;11731;48.592;8.858;2022-09-03T08:08:02;4.20;;;3.40;;
23123;SDS011;11731;48.592;8.858;2022-09-03T08:10:32;3.30;;;3.00;;
23123;SDS011;11731;48.592;8.858;2022-09-03T08:13:00;2.90;;;2.60;;
23123;SDS011;11731;48.592;8.858;2022-09-03T08:15:29;3.10;;;2.90;;
23123;SDS011;11731;48.592;8.858;2022-09-03T08:17:58;3.10;;;2.80;;
23123;SDS011;11731;48.592;8.858;2022-09-03T08:20:25;3.20;;;2.90;;
23123;SDS011;11731;48.592;8.858;2022-09-03T08:22:52;2.97;;;2.73;;
23123;SDS011;11731;48.592;8.858;2022-09-03T08:25:25;3.00;;;2.80;;
23123;SDS011;11731;48.592;8.858;2022-09-03T08:27:52;3.87;;;2.70;;
23123;SDS011;11731;48.592;8.858;2022-09-03T08:30:19;2.60;;;2.40;;
23123;SDS011;11731;48.592;8.858;2022-09-03T08:32:46;3.03;;;2.57;;
23123;SDS011;11731;48.592;8.858;2022-09-03T08:35:14;3.60;;;2.97;;
23123;SDS011;11731;48.592;8.858;2022-09-03T08:37:41;2.80;;;2.60;;
23123;SDS011;11731;48.592;8.858;2022-09-03T08:40:08;2.70;;;2.43;;
23123;SDS011;11731;48.592;8.858;2022-09-03T08:42:39;3.07;;;2.77;;
23123;SDS011;11731;48.592;8.858;2022-09-03T08:45:12;2.80;;;2.60;;
23123;SDS011;11731;48.592;8.858;2022-09-03T08:47:43;4.03;;;2.53;;
23123;SDS011;11731;48.592;8.858;2022-09-03T08:50:17;5.07;;;2.80;;
23123;SDS011;11731;48.592;8.858;2022-09-03T08:52:50;2.87;;;2.67;;
23123;SDS011;11731;48.592;8.858;2022-09-03T08:55:26;4.00;;;2.50;;
23123;SDS011;11731;48.592;8.858;2022-09-03T08:57:58;4.43;;;2.63;;
23123;SDS011;11731;48.592;8.858;2022-09-03T09:00:35;3.30;;;2.53;;
23123;SDS011;11731;48.592;8.858;2022-09-03T09:03:16;3.13;;;2.87;;
23123;SDS011;11731;48.592;8.858;2022-09-03T09:06:10;2.70;;;2.50;;
23123;SDS011;11731;48.592;8.858;2022-09-03T09:08:44;4.23;;;2.80;;
23123;SDS011;11731;48.592;8.858;2022-09-03T09:11:26;2.67;;;2.47;;
23123;SDS011;11731;48.592;8.858;2022-09-03T09:14:02;4.43;;;2.90;;
23123;SDS011;11731;48.592;8.858;2022-09-03T09:16:37;3.10;;;2.70;;
23123;SDS011;11731;48.592;8.858;2022-09-03T09:19:13;2.80;;;2.60;;
23123;SDS011;11731;48.592;8.858;2022-09-03T09:21:50;2.93;;;2.70;;
23123;SDS011;11731;48.592;8.858;2022-09-03T09:24:21;3.07;;;2.77;;
23123;SDS011;11731;48.592;8.858;2022-09-03T09:26:50;3.30;;;2.80;;
23123;SDS011;11731;48.592;8.858;2022-09-03T09:29:22;3.13;;;2.67;;
23123;SDS011;11731;48.592;8.858;2022-09-03T09:31:52;2.70;;;2.50;;
23123;SDS011;11731;48.592;8.858;2022-09-03T09:34:19;2.97;;;2.67;;
23123;SDS011;11731;48.592;8.858;2022-09-03T09:36:47;2.97;;;2.57;;
23123;SDS011;11731;48.592;8.858;2022-09-03T09:39:17;2.70;;;2.50;;
23123;SDS011;11731;48.592;8.858;2022-09-03T09:41:55;2.87;;;2.67;;
23123;SDS011;11731;48.592;8.858;2022-09-03T09:44:24;4.60;;;2.53;;
23123;SDS011;11731;48.592;8.858;2022-09-03T09:47:00;2.50;;;2.30;;
23123;SDS011;11731;48.592;8.858;2022-09-03T09:49:31;4.37;;;2.80;;
23123;SDS011;11731;48.592;8.858;2022-09-03T09:52:09;5.17;;;2.97;;
23123;SDS011;11731;48.592;8.858;2022-09-03T09:54:37;2.97;;;2.67;;
23123;SDS011;11731;48.592;8.858;2022-09-03T09:57:06;4.63;;;2.43;;
23123;SDS011;11731;48.592;8.858;2022-09-03T09:59:38;4.10;;;2.20;;
23123;SDS011;11731;48.592;8.858;2022-09-03T10:02:10;2.73;;;2.53;;
23123;SDS011;11731;48.592;8.858;2022-09-03T10:04:38;2.60;;;2.33;;
23123;SDS011;11731;48.592;8.858;2022-09-03T10:07:18;4.77;;;2.97;;
23123;SDS011;11731;48.592;8.858;2022-09-03T10:09:59;3.13;;;2.47;;
23123;SDS011;11731;48.592;8.858;2022-09-03T10:12:30;2.90;;;2.70;;
23123;SDS011;11731;48.592;8.858;2022-09-03T10:15:02;3.40;;;2.90;;
23123;SDS011;11731;48.592;8.858;2022-09-03T10:17:42;3.27;;;2.97;;
23123;SDS011;11731;48.592;8.858;2022-09-03T10:20:18;3.20;;;2.87;;
23123;SDS011;11731;48.592;8.858;2022-09-03T10:22:56;3.20;;;2.90;;
23123;SDS011;11731;48.592;8.858;2022-09-03T10:25:29;3.10;;;2.90;;
23123;SDS011;11731;48.592;8.858;2022-09-03T10:28:04;2.73;;;2.53;;
23123;SDS011;11731;48.592;8.858;2022-09-03T10:30:37;3.20;;;2.90;;
23123;SDS011;11731;48.592;8.858;2022-09-03T10:33:23;2.80;;;2.60;;
23123;SDS011;11731;48.592;8.858;2022-09-03T10:35:59;3.03;;;2.83;;
23123;SDS011;11731;48.592;8.858;2022-09-03T10:38:38;2.77;;;2.57;;
23123;SDS011;11731;48.592;8.858;2022-09-03T10:41:12;3.73;;;2.63;;
23123;SDS011;11731;48.592;8.858;2022-09-03T10:43:54;3.17;;;2.87;;
23123;SDS011;11731;48.592;8.858;2022-09-03T10:46:35;3.60;;;3.03;;
23123;SDS011;11731;48.592;8.858;2022-09-03T10:52:16;3.20;;;2.83;;
23123;SDS011;11731;48.592;8.858;2022-09-03T10:54:57;3.00;;;2.70;;
23123;SDS011;11731;48.592;8.858;2022-09-03T10:57:43;3.07;;;2.60;;
23123;SDS011;11731;48.592;8.858;2022-09-03T11:00:15;4.50;;;3.03;;
23123;SDS011;11731;48.592;8.858;2022-09-03T11:05:54;6.57;;;3.57;;
23123;SDS011;11731;48.592;8.858;2022-09-03T11:08:27;4.50;;;3.60;;
23123;SDS011;11731;48.592;8.858;2022-09-03T11:11:02;9.30;;;4.27;;
23123;SDS011;11731;48.592;8.858;2022-09-03T11:13:37;7.70;;;3.90;;
23123;SDS011;11731;48.592;8.858;2022-09-03T11:16:08;10.60;;;3.70;;
23123;SDS011;11731;48.592;8.858;2022-09-03T11:18:41;4.87;;;2.43;;
23123;SDS011;11731;48.592;8.858;2022-09-03T11:21:14;4.70;;;3.10;;
23123;SDS011;11731;48.592;8.858;2022-09-03T11:23:45;6.70;;;3.50;;
23123;SDS011;11731;48.592;8.858;2022-09-03T11:26:18;4.33;;;3.30;;
23123;SDS011;11731;48.592;8.858;2022-09-03T11:28:51;5.50;;;3.07;;
23123;SDS011;11731;48.592;8.858;2022-09-03T11:31:28;3.23;;;2.57;;
23123;SDS011;11731;48.592;8.858;2022-09-03T11:34:05;3.07;;;2.77;;
23123;SDS011;11731;48.592;8.858;2022-09-03T11:36:34;7.50;;;4.50;;
23123;SDS011;11731;48.592;8.858;2022-09-03T11:39:12;9.97;;;5.07;;
23123;SDS011;11731;48.592;8.858;2022-09-03T11:41:45;6.33;;;3.10;;
23123;SDS011;11731;48.592;8.858;2022-09-03T11:44:23;4.80;;;2.60;;
23123;SDS011;11731;48.592;8.858;2022-09-03T11:47:11;4.43;;;2.60;;
23123;SDS011;11731;48.592;8.858;2022-09-03T11:49:44;5.07;;;2.50;;
23123;SDS011;11731;48.592;8.858;2022-09-03T11:52:24;7.07;;;2.70;;
23123;SDS011;11731;48.592;8.858;2022-09-03T12:08:11;4.70;;;2.23;;
23123;SDS011;11731;48.592;8.858;2022-09-03T12:10:53;2.90;;;2.00;;
23123;SDS011;11731;48.592;8.858;2022-09-03T12:13:32;2.63;;;1.77;;
23123;SDS011;11731;48.592;8.858;2022-09-03T12:16:16;3.23;;;1.50;;
23123;SDS011;11731;48.592;8.858;2022-09-03T12:18:56;3.27;;;1.77;;
23123;SDS011;11731;48.592;8.858;2022-09-03T12:21:35;2.97;;;1.70;;
23123;SDS011;11731;48.592;8.858;2022-09-03T12:24:05;4.50;;;1.70;;
23123;SDS011;11731;48.592;8.858;2022-09-03T12:26:37;3.70;;;1.77;;
23123;SDS011;11731;48.592;8.858;2022-09-03T12:29:05;2.17;;;1.73;;
23123;SDS011;11731;48.592;8.858;2022-09-03T12:31:45;3.87;;;2.57;;
23123;SDS011;11731;48.592;8.858;2022-09-03T12:34:15;2.27;;;1.70;;
23123;SDS011;11731;48.592;8.858;2022-09-03T12:36:43;3.27;;;1.70;;
23123;SDS011;11731;48.592;8.858;2022-09-03T12:39:13;4.83;;;1.70;;
23123;SDS011;11731;48.592;8.858;2022-09-03T12:41:52;4.10;;;1.80;;
23123;SDS011;11731;48.592;8.858;2022-09-03T12:44:25;2.80;;;1.63;;
23123;SDS011;11731;48.592;8.858;2022-09-03T12:47:02;3.87;;;1.70;;
23123;SDS011;11731;48.592;8.858;2022-09-03T12:49:35;5.30;;;1.70;;
23123;SDS011;11731;48.592;8.858;2022-09-03T12:52:04;1.67;;;1.57;;
23123;SDS011;11731;48.592;8.858;2022-09-03T12:54:41;1.87;;;1.70;;
23123;SDS011;11731;48.592;8.858;2022-09-03T12:57:13;3.60;;;1.70;;
23123;SDS011;11731;48.592;8.858;2022-09-03T12:59:46;2.50;;;1.80;;
23123;SDS011;11731;48.592;8.858;2022-09-03T13:02:16;3.27;;;2.00;;
23123;SDS011;11731;48.592;8.858;2022-09-03T13:04:49;2.30;;;2.10;;
23123;SDS011;11731;48.592;8.858;2022-09-03T13:07:20;2.93;;;2.27;;
23123;SDS011;11731;48.592;8.858;2022-09-03T13:10:15;3.70;;;2.70;;
23123;SDS011;11731;48.592;8.858;2022-09-03T13:13:01;3.63;;;2.50;;
23123;SDS011;11731;48.592;8.858;2022-09-03T13:15:32;3.13;;;2.40;;
23123;SDS011;11731;48.592;8.858;2022-09-03T13:18:07;5.50;;;3.00;;
23123;SDS011;11731;48.592;8.858;2022-09-03T13:20:50;5.30;;;2.77;;
23123;SDS011;11731;48.592;8.858;2022-09-03T13:26:23;5.10;;;2.80;;
23123;SDS011;11731;48.592;8.858;2022-09-03T13:29:01;3.50;;;2.73;;
23123;SDS011;11731;48.592;8.858;2022-09-03T13:31:50;5.43;;;2.80;;
23123;SDS011;11731;48.592;8.858;2022-09-03T13:34:21;4.27;;;2.53;;
23123;SDS011;11731;48.592;8.858;2022-09-03T13:36:57;5.90;;;2.50;;
23123;SDS011;11731;48.592;8.858;2022-09-03T13:39:34;2.80;;;2.23;;
23123;SDS011;11731;48.592;8.858;2022-09-03T13:42:09;4.47;;;2.70;;
23123;SDS011;11731;48.592;8.858;2022-09-03T13:44:43;3.10;;;2.70;;
23123;SDS011;11731;48.592;8.858;2022-09-03T13:47:17;3.10;;;2.33;;
23123;SDS011;11731;48.592;8.858;2022-09-03T13:49:53;2.67;;;2.00;;
23123;SDS011;11731;48.592;8.858;2022-09-03T13:52:45;8.33;;;2.50;;
23123;SDS011;11731;48.592;8.858;2022-09-03T13:55:18;4.77;;;2.57;;
23123;SDS011;11731;48.592;8.858;2022-09-03T13:57:53;2.70;;;2.50;;
23123;SDS011;11731;48.592;8.858;2022-09-03T14:04:09;3.10;;;2.67;;
23123;SDS011;11731;48.592;8.858;2022-09-03T14:06:59;4.87;;;2.77;;
23123;SDS011;11731;48.592;8.858;2022-09-03T14:09:32;3.30;;;2.23;;
23123;SDS011;11731;48.592;8.858;2022-09-03T14:12:09;4.83;;;2.63;;
23123;SDS011;11731;48.592;8.858;2022-09-03T14:14:47;2.63;;;2.13;;
23123;SDS011;11731;48.592;8.858;2022-09-03T14:20:16;3.70;;;2.10;;
23123;SDS011;11731;48.592;8.858;2022-09-03T14:22:52;3.17;;;2.20;;
23123;SDS011;11731;48.592;8.858;2022-09-03T14:25:24;3.27;;;2.17;;
23123;SDS011;11731;48.592;8.858;2022-09-03T14:28:10;2.47;;;2.20;;
23123;SDS011;11731;48.592;8.858;2022-09-03T14:30:42;3.20;;;1.90;;
23123;SDS011;11731;48.592;8.858;2022-09-03T14:33:15;2.00;;;1.90;;
23123;SDS011;11731;48.592;8.858;2022-09-03T14:35:49;1.63;;;1.53;;
23123;SDS011;11731;48.592;8.858;2022-09-03T14:38:27;1.77;;;1.67;;
23123;SDS011;11731;48.592;8.858;2022-09-03T14:41:04;1.83;;;1.70;;
23123;SDS011;11731;48.592;8.858;2022-09-03T14:43:54;3.73;;;1.90;;
23123;SDS011;11731;48.592;8.858;2022-09-03T14:46:37;1.97;;;1.73;;
23123;SDS011;11731;48.592;8.858;2022-09-03T14:49:16;2.03;;;1.80;;
23123;SDS011;11731;48.592;8.858;2022-09-03T14:51:56;1.67;;;1.57;;
23123;SDS011;11731;48.592;8.858;2022-09-03T14:54:39;2.53;;;1.60;;
23123;SDS011;11731;48.592;8.858;2022-09-03T14:57:36;3.30;;;1.60;;
23123;SDS011;11731;48.592;8.858;2022-09-03T15:00:14;1.93;;;1.83;;
23123;SDS011;11731;48.592;8.858;2022-09-03T15:06:13;2.07;;;1.70;;
23123;SDS011;11731;48.592;8.858;2022-09-03T15:09:01;2.03;;;1.63;;
23123;SDS011;11731;48.592;8.858;2022-09-03T15:11:47;1.93;;;1.60;;
23123;SDS011;11731;48.592;8.858;2022-09-03T15:14:19;1.90;;;1.70;;
23123;SDS011;11731;48.592;8.858;2022-09-03T15:16:52;2.67;;;1.70;;
23123;SDS011;11731;48.592;8.858;2022-09-03T15:22:38;2.10;;;1.80;;
23123;SDS011;11731;48.592;8.858;2022-09-03T15:25:21;3.10;;;1.50;;
23123;SDS011;11731;48.592;8.858;2022-09-03T15:28:01;2.53;;;1.73;;
23123;SDS011;11731;48.592;8.858;2022-09-03T15:30:38;1.80;;;1.63;;
23123;SDS011;11731;48.592;8.858;2022-09-03T15:33:10;2.40;;;1.93;;
23123;SDS011;11731;48.592;8.858;2022-09-03T15:38:54;2.73;;;1.53;;
23123;SDS011;11731;48.592;8.858;2022-09-03T15:42:34;4.97;;;1.67;;
23123;SDS011;11731;48.592;8.858;2022-09-03T15:48:36;1.63;;;1.50;;
23123;SDS011;11731;48.592;8.858;2022-09-03T15:51:19;1.67;;;1.57;;
23123;SDS011;11731;48.592;8.858;2022-09-03T15:53:58;1.70;;;1.60;;
23123;SDS011;11731;48.592;8.858;2022-09-03T15:57:02;1.80;;;1.50;;
23123;SDS011;11731;48.592;8.858;2022-09-03T15:59:41;1.90;;;1.47;;
23123;SDS011;11731;48.592;8.858;2022-09-03T16:08:27;2.37;;;1.40;;
23123;SDS011;11731;48.592;8.858;2022-09-03T16:11:06;2.57;;;1.87;;